Time;durP1;ratioP1;P1;durP2;ratioP2;P2;SDS_P1;SDS_P2;PMS_P1;PMS_P2;Temp;Humidity;BMP_temperature;BMP_pressure;BME280_temperature;BME280_humidity;BME280_pressure;Samples;Min_cycle;Max_cycle;Signal;HPM_P1;HPM_P2
2023/09/06 00:29:14;;;;;;;;;;;19.20;99.90;;;;;;5072768;28;19927;-45
2023/09/06 00:31:39;;;;;;;;;;;19.10;99.90;;;;;;5072824;28;19908;-42
2023/09/06 00:34:05;;;;;;;;;;;19.10;99.90;;;;;;5068508;28;19915;-41
2023/09/06 00:36:32;;;;;;;;;;;19.10;99.90;;;;;;5066923;28;19912;-43
2023/09/06 00:38:58;;;;;;;;;;;19.00;99.90;;;;;;5072464;28;19919;-43
2023/09/06 00:41:24;;;;;;;;;;;18.90;99.90;;;;;;5072812;28;20002;-43
2023/09/06 00:43:49;;;;;;;;;;;18.80;99.90;;;;;;5072607;28;20371;-41
2023/09/06 00:46:15;;;;;;;;;;;18.80;99.90;;;;;;5072400;28;20267;-43
2023/09/06 00:48:41;;;;;;;;;;;18.70;99.90;;;;;;5072370;28;19970;-42
2023/09/06 00:51:07;;;;;;;;;;;18.70;99.90;;;;;;5071978;28;20006;-43
2023/09/06 00:53:32;;;;;;;;;;;18.60;99.90;;;;;;5072453;28;19919;-43
2023/09/06 00:55:59;;;;;;;;;;;18.60;99.90;;;;;;5072601;28;19908;-42
2023/09/06 00:58:26;;;;;;;;;;;18.50;99.90;;;;;;5072527;28;20275;-43
2023/09/06 01:00:52;;;;;;;;;;;18.60;99.90;;;;;;5072526;28;19908;-43
2023/09/06 01:03:17;;;;;;;;;;;18.50;99.90;;;;;;5072248;28;19912;-41
2023/09/06 01:05:47;;;;;;;;;;;18.50;99.90;;;;;;5072030;28;19978;-42
2023/09/06 01:08:18;;;;;;;;;;;18.50;99.90;;;;;;5072316;28;19909;-43
2023/09/06 01:10:44;;;;;;;;;;;18.40;99.90;;;;;;5072425;28;20079;-45
2023/09/06 01:13:09;;;;;;;;;;;18.30;99.90;;;;;;5072141;28;20445;-44
2023/09/06 01:15:36;;;;;;;;;;;18.30;99.90;;;;;;5072390;28;19955;-44
2023/09/06 01:18:04;;;;;;;;;;;18.20;99.90;;;;;;5072330;28;19959;-42
2023/09/06 01:20:31;;;;;;;;;;;18.10;99.90;;;;;;5072297;28;19935;-44
2023/09/06 01:22:59;;;;;;;;;;;18.00;99.90;;;;;;5075039;28;19913;-41
2023/09/06 01:25:25;;;;;;;;;;;17.90;99.90;;;;;;5076197;28;19986;-44
2023/09/06 01:27:50;;;;;;;;;;;17.90;99.90;;;;;;5076032;28;20011;-42
2023/09/06 01:30:16;;;;;;;;;;;17.90;99.90;;;;;;5075953;28;20011;-43
2023/09/06 01:32:41;;;;;;;;;;;17.80;99.90;;;;;;5076040;28;19916;-46
2023/09/06 01:35:10;;;;;;;;;;;17.80;99.90;;;;;;5075757;28;19978;-42
2023/09/06 01:37:37;;;;;;;;;;;17.80;99.90;;;;;;5075855;28;19908;-42
2023/09/06 01:40:12;;;;;;;;;;;17.70;99.90;;;;;;5075720;28;20290;-43
2023/09/06 01:42:38;;;;;;;;;;;17.80;99.90;;;;;;5075891;28;19913;-42
2023/09/06 01:45:03;;;;;;;;;;;17.70;99.90;;;;;;5075242;28;20383;-42
2023/09/06 01:47:29;;;;;;;;;;;;;;;;;;5075851;28;19928;-44
2023/09/06 01:49:57;;;;;;;;;;;17.80;99.90;;;;;;5075087;28;19921;-42
2023/09/06 01:52:22;;;;;;;;;;;17.80;99.90;;;;;;5055734;28;19909;-42
2023/09/06 01:54:48;;;;;;;;;;;17.80;99.90;;;;;;5062862;28;19919;-42
2023/09/06 01:57:13;;;;;;;;;;;17.80;99.90;;;;;;5075384;28;20497;-47
2023/09/06 01:59:39;;;;;;;;;;;17.90;99.90;;;;;;5075783;28;19908;-41
2023/09/06 02:02:04;;;;;;;;;;;17.90;99.90;;;;;;5074820;28;19919;-42
2023/09/06 02:04:30;;;;;;;;;;;17.90;99.90;;;;;;5075373;28;19997;-43
2023/09/06 02:06:55;;;;;;;;;;;17.90;99.90;;;;;;5075616;28;19915;-41
2023/09/06 02:09:21;;;;;;;;;;;17.90;99.90;;;;;;5075236;28;20057;-42
2023/09/06 02:11:46;;;;;;;;;;;18.00;99.90;;;;;;5074895;28;19919;-42
2023/09/06 02:14:12;;;;;;;;;;;17.90;99.90;;;;;;5074930;28;19920;-41
2023/09/06 02:16:37;;;;;;;;;;;17.90;99.90;;;;;;5075244;28;19940;-41
2023/09/06 02:19:03;;;;;;;;;;;17.90;99.90;;;;;;5074762;28;20371;-42
2023/09/06 02:21:28;;;;;;;;;;;17.80;99.90;;;;;;5075162;28;19916;-42
2023/09/06 02:23:56;;;;;;;;;;;17.70;99.90;;;;;;5075055;28;20379;-42
2023/09/06 02:26:21;;;;;;;;;;;17.70;99.90;;;;;;5074940;28;20386;-45
2023/09/06 02:28:48;;;;;;;;;;;17.60;99.90;;;;;;5074965;28;19928;-42
2023/09/06 02:31:14;;;;;;;;;;;17.50;99.90;;;;;;5074111;28;20339;-41
2023/09/06 02:33:40;;;;;;;;;;;17.50;99.90;;;;;;5072996;28;19956;-43
2023/09/06 02:36:05;;;;;;;;;;;17.40;99.90;;;;;;5074418;28;20086;-41
2023/09/06 02:38:30;;;;;;;;;;;17.40;99.90;;;;;;5074839;28;19931;-42
2023/09/06 02:40:56;;;;;;;;;;;17.30;99.90;;;;;;5073811;28;19912;-44
2023/09/06 02:43:22;;;;;;;;;;;17.30;99.90;;;;;;5074407;28;20283;-41
2023/09/06 02:45:49;;;;;;;;;;;17.30;99.90;;;;;;5074584;28;19908;-44
2023/09/06 02:48:16;;;;;;;;;;;17.30;99.90;;;;;;5074444;28;20367;-43
2023/09/06 02:50:44;;;;;;;;;;;17.30;99.90;;;;;;5073768;28;19920;-44
2023/09/06 02:53:22;;;;;;;;;;;17.30;99.90;;;;;;5074147;28;20252;-41
2023/09/06 02:55:51;;;;;;;;;;;17.20;99.90;;;;;;5074309;28;19908;-41
2023/09/06 02:58:18;;;;;;;;;;;17.20;99.90;;;;;;5074353;28;19912;-43
2023/09/06 03:00:47;;;;;;;;;;;17.20;99.90;;;;;;5073655;28;19916;-41
2023/09/06 03:03:15;;;;;;;;;;;17.20;99.90;;;;;;5074451;28;19909;-44
2023/09/06 03:05:41;;;;;;;;;;;17.20;99.90;;;;;;5074214;28;20343;-42
2023/09/06 03:08:08;;;;;;;;;;;17.20;99.90;;;;;;5074318;28;19908;-42
2023/09/06 03:10:34;;;;;;;;;;;17.20;99.90;;;;;;5073848;28;20522;-42
2023/09/06 03:13:00;;;;;;;;;;;17.20;99.90;;;;;;5074024;28;19912;-43
2023/09/06 03:15:29;;;;;;;;;;;17.10;99.90;;;;;;5073954;28;19908;-43
2023/09/06 03:17:55;;;;;;;;;;;17.10;99.90;;;;;;5073926;28;19916;-43
2023/09/06 03:20:33;;;;;;;;;;;17.10;99.90;;;;;;5073427;28;19916;-43
2023/09/06 03:23:06;;;;;;;;;;;17.10;99.90;;;;;;5073842;28;19908;-43
2023/09/06 03:25:32;;;;;;;;;;;17.10;99.90;;;;;;5073872;28;19916;-43
2023/09/06 03:28:00;;;;;;;;;;;17.00;99.90;;;;;;5073272;28;20347;-41
2023/09/06 03:30:27;;;;;;;;;;;16.90;99.90;;;;;;5073740;28;19917;-42
2023/09/06 03:32:53;;;;;;;;;;;16.90;99.90;;;;;;5073694;28;19954;-41
2023/09/06 03:35:22;;;;;;;;;;;16.80;99.90;;;;;;5073638;28;19947;-43
2023/09/06 03:37:47;;;;;;;;;;;16.80;99.90;;;;;;5073160;28;19962;-41
2023/09/06 03:42:56;;;;;;;;;;;16.80;99.90;;;;;;5073362;28;19958;-42
2023/09/06 03:45:24;;;;;;;;;;;16.80;99.90;;;;;;5072688;28;19924;-43
2023/09/06 03:47:52;;;;;;;;;;;16.80;99.90;;;;;;5073039;28;19962;-45
2023/09/06 03:50:20;;;;;;;;;;;16.70;99.90;;;;;;5073352;28;19958;-42
2023/09/06 03:52:45;;;;;;;;;;;16.70;99.90;;;;;;5073303;28;20360;-46
2023/09/06 03:55:11;;;;;;;;;;;16.70;99.90;;;;;;5073308;28;19909;-43
2023/09/06 03:57:37;;;;;;;;;;;16.70;99.90;;;;;;5072844;28;19959;-43
2023/09/06 04:00:20;;;;;;;;;;;16.60;99.90;;;;;;5073159;28;19916;-41
2023/09/06 04:02:45;;;;;;;;;;;16.60;99.90;;;;;;5073164;28;19909;-42
2023/09/06 04:05:11;;;;;;;;;;;16.60;99.90;;;;;;5073336;28;19908;-44
2023/09/06 04:07:38;;;;;;;;;;;16.50;99.90;;;;;;5072795;28;19912;-43
2023/09/06 04:10:07;;;;;;;;;;;16.50;99.90;;;;;;5072998;28;19932;-41
2023/09/06 04:12:35;;;;;;;;;;;16.50;99.90;;;;;;5073133;28;19909;-42
2023/09/06 04:15:00;;;;;;;;;;;16.50;99.90;;;;;;5072986;28;19915;-43
2023/09/06 04:17:27;;;;;;;;;;;16.50;99.90;;;;;;5072229;28;19912;-41
2023/09/06 04:19:54;;;;;;;;;;;16.40;99.90;;;;;;5072662;28;19912;-42
2023/09/06 04:22:19;;;;;;;;;;;16.40;99.90;;;;;;5072976;28;19908;-46
2023/09/06 04:24:45;;;;;;;;;;;16.40;99.90;;;;;;5073045;28;20023;-42
2023/09/06 04:27:12;;;;;;;;;;;16.40;99.90;;;;;;5072440;28;19920;-41
2023/09/06 04:29:37;;;;;;;;;;;16.30;99.90;;;;;;5072846;28;19990;-42
2023/09/06 04:32:03;;;;;;;;;;;16.30;99.90;;;;;;5072780;28;20364;-41
2023/09/06 04:34:28;;;;;;;;;;;16.30;99.90;;;;;;5065623;28;19955;-43
2023/09/06 04:36:54;;;;;;;;;;;16.30;99.90;;;;;;5066333;28;20364;-43
2023/09/06 04:39:20;;;;;;;;;;;16.30;99.90;;;;;;5056819;28;19909;-43
2023/09/06 04:41:45;;;;;;;;;;;16.30;99.90;;;;;;5058742;28;19939;-45
2023/09/06 04:44:11;;;;;;;;;;;16.30;99.90;;;;;;5063240;28;19920;-42
2023/09/06 04:46:36;;;;;;;;;;;16.30;99.90;;;;;;5072619;28;19955;-42
2023/09/06 04:49:02;;;;;;;;;;;16.30;99.90;;;;;;5071505;28;20279;-44
2023/09/06 04:51:28;;;;;;;;;;;16.20;99.90;;;;;;5071943;28;19959;-43
2023/09/06 04:53:54;;;;;;;;;;;16.20;99.90;;;;;;5072509;28;19956;-45
2023/09/06 04:56:19;;;;;;;;;;;16.10;99.90;;;;;;5073065;28;20393;-44
2023/09/06 04:58:45;;;;;;;;;;;16.10;99.90;;;;;;5076659;28;19909;-42
2023/09/06 05:01:11;;;;;;;;;;;16.10;99.90;;;;;;5076234;28;19912;-42
2023/09/06 05:03:38;;;;;;;;;;;16.10;99.90;;;;;;5075913;28;19913;-42
2023/09/06 05:06:03;;;;;;;;;;;16.10;99.90;;;;;;5076308;28;19912;-42
2023/09/06 05:08:30;;;;;;;;;;;16.10;99.90;;;;;;5076517;28;20311;-42
2023/09/06 05:10:56;;;;;;;;;;;16.10;99.90;;;;;;5075106;28;20383;-42
2023/09/06 05:13:22;;;;;;;;;;;16.10;99.90;;;;;;5075431;28;20279;-44
2023/09/06 05:15:48;;;;;;;;;;;16.10;99.90;;;;;;5075846;28;19999;-43
2023/09/06 05:18:14;;;;;;;;;;;16.10;99.90;;;;;;5076345;28;20073;-42
2023/09/06 05:20:40;;;;;;;;;;;16.10;99.90;;;;;;5075891;28;19920;-44
2023/09/06 05:23:06;;;;;;;;;;;16.10;99.90;;;;;;5075603;28;19912;-42
2023/09/06 05:25:32;;;;;;;;;;;16.10;99.90;;;;;;5074985;28;19916;-39
2023/09/06 05:28:00;;;;;;;;;;;16.20;99.90;;;;;;5074576;28;20364;-43
2023/09/06 05:30:26;;;;;;;;;;;16.20;99.90;;;;;;5062390;28;19950;-46
2023/09/06 05:32:53;;;;;;;;;;;16.10;99.90;;;;;;5075419;28;19909;-41
2023/09/06 05:35:19;;;;;;;;;;;16.10;99.90;;;;;;5075704;28;20282;-42
2023/09/06 05:37:44;;;;;;;;;;;16.10;99.90;;;;;;5075793;28;19908;-43
2023/09/06 05:40:12;;;;;;;;;;;16.10;99.90;;;;;;5069135;28;19913;-41
2023/09/06 05:42:38;;;;;;;;;;;16.10;99.90;;;;;;5070330;28;19919;-41
2023/09/06 05:45:04;;;;;;;;;;;16.10;99.90;;;;;;5074939;28;20503;-42
2023/09/06 05:47:30;;;;;;;;;;;16.10;99.90;;;;;;5075092;28;19913;-46
2023/09/06 05:49:58;;;;;;;;;;;16.10;99.90;;;;;;5074386;28;19935;-42
2023/09/06 05:52:23;;;;;;;;;;;16.20;99.90;;;;;;5075513;28;20072;-46
2023/09/06 05:54:49;;;;;;;;;;;16.20;99.90;;;;;;5074778;28;20294;-42
2023/09/06 05:57:15;;;;;;;;;;;16.20;99.90;;;;;;5074792;28;20011;-41
2023/09/06 05:59:41;;;;;;;;;;;16.20;99.90;;;;;;5074823;28;20020;-42
2023/09/06 06:02:07;;;;;;;;;;;16.30;99.90;;;;;;5075274;28;19948;-41
2023/09/06 06:04:33;;;;;;;;;;;16.30;99.90;;;;;;5074527;28;19920;-42
2023/09/06 06:06:59;;;;;;;;;;;16.40;99.90;;;;;;5074654;28;20245;-42
2023/09/06 06:09:25;;;;;;;;;;;16.50;99.90;;;;;;5075166;28;20394;-42
2023/09/06 06:11:54;;;;;;;;;;;16.50;99.90;;;;;;5074629;28;19912;-43
2023/09/06 06:14:19;;;;;;;;;;;16.60;99.90;;;;;;5074301;28;19920;-42
2023/09/06 06:16:45;;;;;;;;;;;16.70;99.90;;;;;;5074547;28;19913;-42
2023/09/06 06:19:11;;;;;;;;;;;16.80;99.90;;;;;;5073612;28;19912;-43
2023/09/06 06:21:37;;;;;;;;;;;16.90;99.90;;;;;;5067814;28;20326;-41
2023/09/06 06:24:03;;;;;;;;;;;16.90;99.90;;;;;;5063603;28;19940;-42
2023/09/06 06:26:29;;;;;;;;;;;17.00;99.90;;;;;;5072448;28;19959;-44
2023/09/06 06:28:54;;;;;;;;;;;17.10;99.90;;;;;;5074788;28;20360;-43
2023/09/06 06:31:20;;;;;;;;;;;17.10;99.90;;;;;;5074792;28;19908;-41
2023/09/06 06:33:45;;;;;;;;;;;17.20;99.90;;;;;;5060968;28;19920;-42
2023/09/06 06:36:11;;;;;;;;;;;17.30;99.90;;;;;;5066252;28;19916;-42
2023/09/06 06:38:36;;;;;;;;;;;17.30;99.90;;;;;;5073603;28;20011;-43
2023/09/06 06:41:02;;;;;;;;;;;17.40;99.90;;;;;;5074679;28;19916;-41
2023/09/06 06:43:27;;;;;;;;;;;17.50;99.90;;;;;;5070867;28;20361;-46
2023/09/06 06:45:53;;;;;;;;;;;17.60;99.90;;;;;;5074023;28;19916;-42
2023/09/06 06:48:19;;;;;;;;;;;17.70;99.90;;;;;;5073485;28;19920;-42
2023/09/06 06:50:44;;;;;;;;;;;17.80;99.90;;;;;;5073142;28;19974;-42
2023/09/06 06:53:11;;;;;;;;;;;17.90;99.90;;;;;;5072464;28;20310;-43
2023/09/06 06:55:37;;;;;;;;;;;18.00;99.90;;;;;;5071254;28;19919;-43
2023/09/06 06:58:03;;;;;;;;;;;18.10;99.90;;;;;;5068483;28;20382;-43
2023/09/06 07:00:31;;;;;;;;;;;18.20;99.90;;;;;;5060235;28;19913;-42
2023/09/06 07:02:57;;;;;;;;;;;18.30;99.90;;;;;;5072572;28;19999;-41
2023/09/06 07:05:23;;;;;;;;;;;18.40;99.90;;;;;;5071478;28;20081;-42
2023/09/06 07:07:48;;;;;;;;;;;18.50;99.90;;;;;;5073904;28;19915;-41
2023/09/06 07:10:15;;;;;;;;;;;18.60;99.90;;;;;;5072644;28;20375;-46
2023/09/06 07:12:40;;;;;;;;;;;18.80;99.90;;;;;;5072598;28;19912;-45
2023/09/06 07:15:06;;;;;;;;;;;18.90;99.90;;;;;;5073496;28;19996;-42
2023/09/06 07:17:32;;;;;;;;;;;19.00;99.90;;;;;;5070080;28;19977;-44
2023/09/06 07:19:58;;;;;;;;;;;19.20;99.90;;;;;;5069784;28;19924;-41
2023/09/06 07:22:24;;;;;;;;;;;19.30;99.90;;;;;;5066591;28;19927;-41
2023/09/06 07:24:50;;;;;;;;;;;19.40;99.90;;;;;;5068838;28;19919;-41
2023/09/06 07:27:15;;;;;;;;;;;19.50;99.90;;;;;;5073016;28;20007;-42
2023/09/06 07:29:41;;;;;;;;;;;19.60;99.90;;;;;;5069196;28;19935;-43
2023/09/06 07:32:07;;;;;;;;;;;19.80;99.90;;;;;;5059186;28;19966;-43
2023/09/06 07:34:32;;;;;;;;;;;19.90;99.90;;;;;;5063362;28;20272;-41
2023/09/06 07:36:58;;;;;;;;;;;19.90;99.90;;;;;;5065845;28;19956;-41
2023/09/06 07:39:23;;;;;;;;;;;20.10;99.90;;;;;;5066602;28;20140;-43
2023/09/06 07:41:50;;;;;;;;;;;20.10;99.90;;;;;;5057445;28;19920;-42
2023/09/06 07:44:15;;;;;;;;;;;20.30;99.90;;;;;;5070677;28;19925;-47
2023/09/06 07:46:43;;;;;;;;;;;20.40;99.90;;;;;;5066529;28;19938;-42
2023/09/06 07:49:09;;;;;;;;;;;20.50;99.90;;;;;;5063405;28;20384;-42
2023/09/06 07:51:34;;;;;;;;;;;20.60;99.90;;;;;;5062438;28;19916;-43
2023/09/06 07:54:00;;;;;;;;;;;20.80;99.90;;;;;;5070186;28;19970;-41
2023/09/06 07:56:26;;;;;;;;;;;20.90;99.90;;;;;;5068549;28;19919;-44
2023/09/06 07:58:51;;;;;;;;;;;21.00;99.90;;;;;;5072643;28;20407;-41
2023/09/06 08:01:17;;;;;;;;;;;21.10;99.90;;;;;;5071232;28;19923;-42
2023/09/06 08:03:42;;;;;;;;;;;21.20;99.90;;;;;;5067793;28;20385;-44
2023/09/06 08:06:08;;;;;;;;;;;21.30;99.90;;;;;;5073200;28;19916;-43
2023/09/06 08:08:33;;;;;;;;;;;21.40;99.90;;;;;;5071118;28;19913;-42
2023/09/06 08:10:59;;;;;;;;;;;21.50;99.90;;;;;;5069769;28;20352;-42
2023/09/06 08:13:24;;;;;;;;;;;21.50;99.90;;;;;;5069390;28;19938;-41
2023/09/06 08:15:50;;;;;;;;;;;21.60;99.90;;;;;;5069609;28;19909;-44
2023/09/06 08:18:15;;;;;;;;;;;21.70;99.90;;;;;;5072101;28;19916;-42
2023/09/06 08:20:41;;;;;;;;;;;21.80;99.90;;;;;;5063397;28;19967;-42
2023/09/06 08:23:06;;;;;;;;;;;21.80;99.90;;;;;;5069517;28;19913;-43
2023/09/06 08:25:33;;;;;;;;;;;21.90;99.90;;;;;;5069808;28;19909;-43
2023/09/06 08:27:59;;;;;;;;;;;22.00;99.90;;;;;;5068374;28;19948;-42
2023/09/06 08:30:24;;;;;;;;;;;22.10;99.90;;;;;;5069735;28;20382;-41
2023/09/06 08:32:51;;;;;;;;;;;22.10;99.90;;;;;;5066687;28;20303;-44
2023/09/06 08:35:17;;;;;;;;;;;22.20;99.90;;;;;;5052660;28;20004;-43
2023/09/06 08:37:45;;;;;;;;;;;22.30;99.90;;;;;;5058186;28;19912;-42
2023/09/06 08:40:11;;;;;;;;;;;22.40;99.90;;;;;;5063498;28;19920;-43
2023/09/06 08:42:38;;;;;;;;;;;22.40;99.90;;;;;;5079394;28;20382;-42
2023/09/06 08:45:04;;;;;;;;;;;22.60;99.90;;;;;;5061546;28;19986;-42
2023/09/06 08:47:30;;;;;;;;;;;22.60;99.90;;;;;;5064545;28;19913;-41
2023/09/06 08:49:56;;;;;;;;;;;22.80;99.90;;;;;;5059082;28;20398;-42
2023/09/06 08:52:21;;;;;;;;;;;22.80;99.90;;;;;;5085012;28;19944;-41
2023/09/06 08:54:50;;;;;;;;;;;22.90;99.90;;;;;;5065420;28;20014;-43
2023/09/06 08:57:17;;;;;;;;;;;23.00;99.90;;;;;;5060085;28;20356;-43
2023/09/06 08:59:43;;;;;;;;;;;23.10;99.90;;;;;;5057563;28;19913;-42
2023/09/06 09:02:12;;;;;;;;;;;23.10;99.90;;;;;;5075727;28;20022;-43
2023/09/06 09:04:42;;;;;;;;;;;23.20;99.90;;;;;;5054797;28;19920;-42
2023/09/06 09:07:11;;;;;;;;;;;23.30;99.90;;;;;;5059528;28;19920;-42
2023/09/06 09:09:55;;;;;;;;;;;23.40;99.90;;;;;;5065369;28;19924;-42
2023/09/06 09:12:22;;;;;;;;;;;23.50;99.90;;;;;;5072057;28;19919;-42
2023/09/06 09:14:48;;;;;;;;;;;23.60;99.90;;;;;;5052665;28;19915;-41
2023/09/06 09:17:13;;;;;;;;;;;23.70;99.90;;;;;;5066347;28;19912;-42
2023/09/06 09:19:39;;;;;;;;;;;23.90;99.90;;;;;;5067162;28;19913;-43
2023/09/06 09:22:07;;;;;;;;;;;23.90;99.90;;;;;;5068428;28;20035;-41
2023/09/06 09:24:32;;;;;;;;;;;24.00;99.90;;;;;;5063082;28;19920;-42
2023/09/06 09:26:58;;;;;;;;;;;24.10;99.90;;;;;;5064309;28;19919;-42
2023/09/06 09:29:24;;;;;;;;;;;24.20;99.90;;;;;;5061576;28;20356;-45
2023/09/06 09:31:49;;;;;;;;;;;24.30;99.90;;;;;;5069240;28;19935;-46
2023/09/06 09:34:16;;;;;;;;;;;24.30;99.90;;;;;;5033856;28;20287;-42
2023/09/06 09:36:48;;;;;;;;;;;24.50;99.90;;;;;;5060624;28;19958;-43
2023/09/06 09:39:13;;;;;;;;;;;24.60;99.90;;;;;;5067172;28;19913;-43
2023/09/06 09:41:42;;;;;;;;;;;24.70;99.90;;;;;;5063509;28;19936;-43
2023/09/06 09:44:12;;;;;;;;;;;24.80;99.90;;;;;;5064574;28;19986;-43
2023/09/06 09:46:39;;;;;;;;;;;24.90;99.90;;;;;;5066035;28;19920;-43
2023/09/06 09:49:06;;;;;;;;;;;24.90;99.90;;;;;;5058584;28;19927;-42
2023/09/06 09:51:33;;;;;;;;;;;25.00;99.90;;;;;;5073374;28;19952;-43
2023/09/06 09:53:59;;;;;;;;;;;25.00;99.90;;;;;;5062188;28;19909;-43
2023/09/06 09:56:25;;;;;;;;;;;25.10;99.90;;;;;;5061165;28;19917;-41
2023/09/06 09:58:52;;;;;;;;;;;25.10;99.90;;;;;;5055987;28;19920;-44
2023/09/06 10:01:18;;;;;;;;;;;25.20;99.90;;;;;;5061413;28;19912;-45
2023/09/06 10:03:45;;;;;;;;;;;25.20;99.90;;;;;;5065135;28;19939;-43
2023/09/06 10:06:11;;;;;;;;;;;25.30;99.90;;;;;;5067126;28;20015;-44
2023/09/06 10:08:37;;;;;;;;;;;25.40;99.90;;;;;;5072911;28;19912;-46
2023/09/06 10:11:06;;;;;;;;;;;25.60;99.90;;;;;;5058735;28;19921;-42
2023/09/06 10:13:32;;;;;;;;;;;25.60;99.90;;;;;;5068824;28;19917;-42
2023/09/06 10:15:58;;;;;;;;;;;25.70;99.90;;;;;;5058438;28;19912;-42
2023/09/06 10:18:23;;;;;;;;;;;25.80;99.90;;;;;;5062034;28;20245;-42
2023/09/06 10:20:49;;;;;;;;;;;25.90;99.90;;;;;;5066552;28;20268;-43
2023/09/06 10:23:15;;;;;;;;;;;26.00;99.90;;;;;;5072374;28;19916;-43
2023/09/06 10:25:41;;;;;;;;;;;26.00;99.90;;;;;;5067489;28;20314;-44
2023/09/06 10:28:07;;;;;;;;;;;26.10;99.90;;;;;;5071626;28;20023;-42
2023/09/06 10:30:34;;;;;;;;;;;26.10;99.90;;;;;;5066381;28;19925;-42
2023/09/06 10:33:01;;;;;;;;;;;26.20;99.90;;;;;;5061807;28;20375;-42
2023/09/06 10:35:30;;;;;;;;;;;26.30;99.90;;;;;;5063438;28;19913;-44
2023/09/06 10:38:10;;;;;;;;;;;26.40;99.90;;;;;;5070851;28;20336;-43
2023/09/06 10:40:51;;;;;;;;;;;26.50;99.90;;;;;;5060967;28;20011;-45
2023/09/06 10:43:17;;;;;;;;;;;26.60;99.90;;;;;;5053349;28;20338;-44
2023/09/06 10:46:02;;;;;;;;;;;26.70;99.90;;;;;;5062977;28;20374;-45
2023/09/06 10:48:27;;;;;;;;;;;26.80;99.90;;;;;;5066613;28;19978;-43
2023/09/06 10:51:08;;;;;;;;;;;26.90;99.90;;;;;;5064114;28;19978;-44
2023/09/06 10:53:37;;;;;;;;;;;27.00;99.90;;;;;;5072979;28;19919;-44
2023/09/06 10:56:03;;;;;;;;;;;27.10;99.90;;;;;;5065387;28;19917;-43
2023/09/06 10:58:30;;;;;;;;;;;27.20;99.90;;;;;;5062446;28;19913;-44
2023/09/06 11:01:16;;;;;;;;;;;27.30;99.90;;;;;;5071269;28;19955;-43
2023/09/06 11:03:46;;;;;;;;;;;27.40;99.90;;;;;;5059456;28;20279;-42
2023/09/06 11:06:12;;;;;;;;;;;27.50;99.90;;;;;;5059619;28;20054;-42
2023/09/06 11:08:38;;;;;;;;;;;27.50;99.90;;;;;;5074220;28;19982;-43
2023/09/06 11:11:06;;;;;;;;;;;27.50;99.90;;;;;;5073604;28;19913;-43
2023/09/06 11:13:33;;;;;;;;;;;27.60;99.90;;;;;;5072593;28;19912;-43
2023/09/06 11:15:59;;;;;;;;;;;27.70;99.90;;;;;;5072965;28;19916;-43
2023/09/06 11:18:25;;;;;;;;;;;27.80;99.90;;;;;;5073508;28;19935;-44
2023/09/06 11:20:51;;;;;;;;;;;27.80;99.90;;;;;;5068066;28;19909;-42
2023/09/06 11:23:16;;;;;;;;;;;27.90;99.90;;;;;;5064155;28;19912;-43
2023/09/06 11:25:42;;;;;;;;;;;28.00;99.90;;;;;;5071875;28;20411;-43
2023/09/06 11:28:18;;;;;;;;;;;28.10;99.90;;;;;;5063611;28;19970;-43
2023/09/06 11:30:47;;;;;;;;;;;28.10;99.90;;;;;;5064688;28;19916;-42
2023/09/06 11:33:15;;;;;;;;;;;28.20;99.90;;;;;;5061826;28;19939;-43
2023/09/06 11:35:45;;;;;;;;;;;28.30;99.90;;;;;;5068459;28;19966;-41
2023/09/06 11:38:12;;;;;;;;;;;28.30;99.90;;;;;;5062273;28;20079;-44
2023/09/06 11:40:38;;;;;;;;;;;28.40;99.90;;;;;;5069483;28;20010;-41
2023/09/06 11:43:05;;;;;;;;;;;28.40;99.90;;;;;;5065308;28;20432;-43
2023/09/06 11:45:32;;;;;;;;;;;28.50;99.90;;;;;;5061737;28;19928;-42
2023/09/06 11:48:04;;;;;;;;;;;28.50;99.90;;;;;;5069537;28;19959;-43
2023/09/06 11:50:30;;;;;;;;;;;28.60;99.90;;;;;;5054334;28;19917;-43
2023/09/06 11:52:58;;;;;;;;;;;28.70;99.90;;;;;;5063120;28;19990;-43
2023/09/06 11:55:28;;;;;;;;;;;28.80;99.90;;;;;;5060792;28;20201;-42
2023/09/06 11:57:57;;;;;;;;;;;28.90;99.90;;;;;;5052649;28;19913;-43
2023/09/06 12:00:27;;;;;;;;;;;29.00;99.90;;;;;;5072254;28;19908;-43
2023/09/06 12:02:54;;;;;;;;;;;29.10;99.90;;;;;;5064070;28;19912;-45
2023/09/06 12:05:26;;;;;;;;;;;29.10;99.90;;;;;;5071999;28;20015;-43
2023/09/06 12:07:54;;;;;;;;;;;29.10;99.90;;;;;;5072501;28;19945;-43
2023/09/06 12:10:23;;;;;;;;;;;29.20;99.90;;;;;;5073166;28;19923;-43
2023/09/06 12:12:49;;;;;;;;;;;29.30;99.90;;;;;;5072937;28;20008;-42
2023/09/06 12:15:19;;;;;;;;;;;29.30;99.90;;;;;;5072031;28;19960;-41
2023/09/06 12:17:48;;;;;;;;;;;29.40;99.90;;;;;;5072515;28;19917;-41
2023/09/06 12:20:18;;;;;;;;;;;29.40;99.90;;;;;;5072279;28;19912;-42
2023/09/06 12:22:45;;;;;;;;;;;29.50;99.90;;;;;;5072615;28;19966;-43
2023/09/06 12:25:12;;;;;;;;;;;29.60;99.90;;;;;;5072794;28;19935;-42
2023/09/06 12:27:37;;;;;;;;;;;29.60;99.90;;;;;;5071543;28;20477;-43
2023/09/06 12:30:03;;;;;;;;;;;29.60;99.90;;;;;;5072588;28;19921;-43
2023/09/06 12:32:31;;;;;;;;;;;29.70;99.90;;;;;;5072657;28;19912;-42
2023/09/06 12:34:57;;;;;;;;;;;29.80;99.90;;;;;;5072029;28;19920;-42
2023/09/06 12:37:24;;;;;;;;;;;29.90;99.80;;;;;;5072042;28;19913;-42
2023/09/06 12:39:50;;;;;;;;;;;29.90;99.60;;;;;;5072461;28;20292;-44
2023/09/06 12:42:15;;;;;;;;;;;29.90;98.00;;;;;;5072587;28;19916;-43
2023/09/06 12:44:41;;;;;;;;;;;30.00;99.90;;;;;;5071978;28;20089;-43
2023/09/06 12:47:06;;;;;;;;;;;30.00;97.80;;;;;;5072925;28;20006;-42
2023/09/06 12:49:31;;;;;;;;;;;30.10;98.30;;;;;;5072712;28;20393;-42
2023/09/06 12:51:57;;;;;;;;;;;30.30;99.10;;;;;;5054297;28;19920;-43
2023/09/06 12:54:23;;;;;;;;;;;30.50;98.80;;;;;;5071317;28;19966;-42
2023/09/06 12:56:49;;;;;;;;;;;30.70;97.00;;;;;;5071691;28;19913;-41
2023/09/06 12:59:15;;;;;;;;;;;30.90;96.50;;;;;;5072202;28;19962;-43
2023/09/06 13:01:40;;;;;;;;;;;31.20;98.40;;;;;;5072141;28;19966;-42
2023/09/06 13:04:06;;;;;;;;;;;31.40;99.20;;;;;;5072558;28;19912;-42
2023/09/06 13:06:31;;;;;;;;;;;31.60;98.80;;;;;;5072646;28;19909;-43
2023/09/06 13:08:57;;;;;;;;;;;31.90;97.30;;;;;;5072352;28;20271;-42
2023/09/06 13:11:22;;;;;;;;;;;32.20;96.90;;;;;;5072061;28;19912;-43
2023/09/06 13:13:48;;;;;;;;;;;32.40;96.60;;;;;;5072301;28;19913;-42
2023/09/06 13:16:13;;;;;;;;;;;32.60;96.40;;;;;;5072363;28;20286;-43
2023/09/06 13:18:41;;;;;;;;;;;32.80;95.80;;;;;;5074719;28;20007;-42
2023/09/06 13:21:06;;;;;;;;;;;33.10;96.70;;;;;;5075922;28;19908;-42
2023/09/06 13:23:32;;;;;;;;;;;33.40;96.10;;;;;;5076543;28;19912;-43
2023/09/06 13:25:59;;;;;;;;;;;33.70;95.20;;;;;;5075693;28;20260;-41
2023/09/06 13:28:24;;;;;;;;;;;33.90;94.70;;;;;;5075879;28;20390;-43
2023/09/06 13:30:50;;;;;;;;;;;34.20;94.30;;;;;;5076032;28;19917;-43
2023/09/06 13:33:15;;;;;;;;;;;34.40;92.70;;;;;;5075207;28;19913;-44
2023/09/06 13:35:41;;;;;;;;;;;34.60;91.80;;;;;;5068271;28;19912;-43
2023/09/06 13:38:06;;;;;;;;;;;34.70;91.60;;;;;;5059502;28;19940;-44
2023/09/06 13:40:32;;;;;;;;;;;34.90;92.20;;;;;;5073427;28;19936;-42
2023/09/06 13:42:57;;;;;;;;;;;35.10;91.40;;;;;;5063892;28;19943;-43
2023/09/06 13:45:23;;;;;;;;;;;35.10;91.70;;;;;;5070586;28;19920;-43
2023/09/06 13:47:49;;;;;;;;;;;35.20;90.60;;;;;;5059759;28;20232;-43
2023/09/06 13:50:14;;;;;;;;;;;35.20;90.70;;;;;;5071812;28;19969;-43
2023/09/06 13:52:40;;;;;;;;;;;35.20;91.40;;;;;;5075607;28;19920;-42
2023/09/06 13:55:05;;;;;;;;;;;35.40;91.90;;;;;;5075266;28;19913;-41
2023/09/06 13:57:31;;;;;;;;;;;35.50;91.10;;;;;;5075525;28;19912;-45
2023/09/06 13:59:56;;;;;;;;;;;35.70;90.70;;;;;;5073954;28;19948;-44
2023/09/06 14:02:22;;;;;;;;;;;35.70;90.60;;;;;;5070370;28;19913;-42
2023/09/06 14:04:47;;;;;;;;;;;35.80;88.50;;;;;;5072540;28;19915;-43
2023/09/06 14:07:13;;;;;;;;;;;35.90;86.40;;;;;;5075535;28;19912;-42
2023/09/06 14:09:39;;;;;;;;;;;36.00;86.90;;;;;;5065804;28;19921;-43
2023/09/06 14:12:04;;;;;;;;;;;36.10;84.80;;;;;;5060185;28;19909;-43
2023/09/06 14:14:30;;;;;;;;;;;36.20;84.30;;;;;;5075874;28;20217;-43
2023/09/06 14:16:55;;;;;;;;;;;36.40;85.60;;;;;;5075897;28;19913;-44
2023/09/06 14:19:21;;;;;;;;;;;36.40;84.40;;;;;;5074935;28;19909;-43
2023/09/06 14:21:46;;;;;;;;;;;36.40;84.70;;;;;;5075436;28;19938;-42
2023/09/06 14:24:15;;;;;;;;;;;36.40;83.30;;;;;;5074496;28;19912;-44
2023/09/06 14:26:44;;;;;;;;;;;36.40;83.60;;;;;;5074255;28;20405;-42
2023/09/06 14:29:10;;;;;;;;;;;36.40;82.80;;;;;;5070346;28;19923;-43
2023/09/06 14:31:36;;;;;;;;;;;36.40;81.60;;;;;;5074056;28;19916;-43
2023/09/06 14:34:01;;;;;;;;;;;36.60;81.00;;;;;;5071408;28;19917;-42
2023/09/06 14:36:27;;;;;;;;;;;36.70;81.10;;;;;;5067387;28;20417;-42
2023/09/06 14:38:54;;;;;;;;;;;36.70;80.90;;;;;;5074284;28;20356;-43
2023/09/06 14:41:21;;;;;;;;;;;36.80;82.20;;;;;;5073784;28;19916;-42
2023/09/06 14:43:46;;;;;;;;;;;36.70;82.70;;;;;;5074312;28;19966;-43
2023/09/06 14:46:12;;;;;;;;;;;36.80;79.70;;;;;;5074820;28;19909;-43